Time;durP1;ratioP1;P1;durP2;ratioP2;P2;SDS_P1;SDS_P2;PMS_P1;PMS_P2;Temp;Humidity;BMP_temperature;BMP_pressure;BME280_temperature;BME280_humidity;BME280_pressure;Samples;Min_cycle;Max_cycle;Signal;HPM_P1;HPM_P2
2022/07/11 00:04:36;;;;;;;;;;;;;;;18.03;80.58;98793.72;4671887;30;19947;-90
2022/07/11 00:07:09;;;;;;;;;;;;;;;18.05;80.50;98797.78;4647248;30;19924;-90
2022/07/11 00:14:02;;;;;;;;;;;;;;;18.18;79.38;98804.41;4680767;30;20356;-90
2022/07/11 00:16:36;;;;;;;;;;;;;;;18.21;79.32;98798.34;4657061;30;19924;-90
2022/07/11 00:19:10;;;;;;;;;;;;;;;18.22;79.25;98797.22;4646871;30;20320;-89
2022/07/11 00:21:42;;;;;;;;;;;;;;;18.28;78.74;98797.94;4653422;30;20428;-90
2022/07/11 00:24:14;;;;;;;;;;;;;;;18.28;78.51;98796.03;4653430;30;20381;-91
2022/07/11 00:26:49;;;;;;;;;;;;;;;18.29;78.45;98786.72;4653289;30;20340;-90
2022/07/11 00:33:42;;;;;;;;;;;;;;;18.38;77.37;98795.03;4669249;30;19950;-91
2022/07/11 00:36:11;;;;;;;;;;;;;;;18.36;77.58;98789.06;4667605;30;20380;-91
2022/07/11 00:43:03;;;;;;;;;;;;;;;18.44;76.93;98788.38;4669737;30;19925;-90
2022/07/11 00:45:31;;;;;;;;;;;;;;;18.41;77.33;98794.44;4640684;30;20291;-89
2022/07/11 00:52:24;;;;;;;;;;;;;;;18.49;76.72;98782.81;4671491;30;19930;-89
2022/07/11 00:54:56;;;;;;;;;;;;;;;18.50;77.01;98781.69;4641186;30;20345;-91
2022/07/11 00:57:31;;;;;;;;;;;;;;;18.51;77.06;98777.03;4669381;30;20356;-90
2022/07/11 01:04:29;;;;;;;;;;;;;;;18.42;77.27;98763.28;4667492;30;20311;-91
2022/07/11 01:06:58;;;;;;;;;;;;;;;18.42;77.45;98763.28;4652329;30;20369;-90
2022/07/11 01:13:46;;;;;;;;;;;;;;;18.35;77.95;98744.53;4667524;30;19929;-90
2022/07/11 01:16:20;;;;;;;;;;;;;;;18.32;78.25;98736.16;4643327;30;20328;-89
2022/07/11 01:18:51;;;;;;;;;;;;;;;18.28;78.70;98727.75;4627009;30;20474;-89
2022/07/11 01:21:24;;;;;;;;;;;;;;;18.25;78.90;98730.25;4628989;30;20349;-90
2022/07/11 01:23:55;;;;;;;;;;;;;;;18.22;79.04;98739.06;4626866;30;19955;-90
2022/07/11 01:26:37;;;;;;;;;;;;;;;18.18;79.31;98738.88;4627647;30;20003;-89
2022/07/11 01:33:37;;;;;;;;;;;;;;;18.21;79.09;98730.06;4666742;30;19970;-92
2022/07/11 01:36:12;;;;;;;;;;;;;;;18.28;78.75;98735.13;4624547;30;20412;-91
2022/07/11 01:43:12;;;;;;;;;;;;;;;18.45;77.97;98713.47;4667280;30;20057;-89
2022/07/11 01:45:52;;;;;;;;;;;;;;;18.50;77.78;98707.91;4625427;30;20381;-90
2022/07/11 01:53:03;;;;;;;;;;;;;;;18.47;77.86;98686.66;4647600;30;20277;-91
2022/07/11 01:55:51;;;;;;;;;;;;;;;18.44;77.86;98648.22;4621823;30;20297;-90
2022/07/11 02:02:57;;;;;;;;;;;;;;;18.45;77.76;98699.03;4633142;30;20444;-90
2022/07/11 02:05:30;;;;;;;;;;;;;;;18.44;77.82;98717.34;4619277;30;20370;-91
2022/07/11 02:12:28;;;;;;;;;;;;;;;18.43;77.95;98726.63;4647498;30;19941;-90
2022/07/11 02:15:30;;;;;;;;;;;;;;;18.41;78.19;98740.63;4633253;30;20309;-91
2022/07/11 02:21:13;;;;;;;;;;;;;;;18.41;78.25;98731.63;4640723;30;19940;-90
2022/07/11 02:23:48;;;;;;;;;;;;;;;18.40;78.30;98732.72;4649064;30;20292;-91
2022/07/11 02:26:23;;;;;;;;;;;;;;;18.41;78.22;98734.34;4623722;30;20393;-92
2022/07/11 02:33:21;;;;;;;;;;;;;;;18.44;78.02;98722.81;4666211;30;19978;-90
2022/07/11 02:36:40;;;;;;;;;;;;;;;18.46;77.96;98730.69;4639659;30;19928;-90
2022/07/11 02:43:55;;;;;;;;;;;;;;;18.48;77.39;98723.78;4668253;30;20357;-89
2022/07/11 02:47:08;;;;;;;;;;;;;;;18.54;77.00;98716.34;4667198;30;19931;-87
2022/07/11 02:54:07;;;;;;;;;;;;;;;18.58;76.32;98706.41;4668091;30;19927;-89
2022/07/11 02:56:43;;;;;;;;;;;;;;;18.61;76.04;98700.34;4654907;30;20301;-89
2022/07/11 03:03:51;;;;;;;;;;;;;;;18.69;75.60;98696.09;4667286;30;19927;-88
2022/07/11 03:13:58;;;;;;;;;;;;;;;18.82;74.98;98700.75;4587586;31;20394;-85
2022/07/11 03:16:28;;;;;;;;;;;;;;;18.86;74.56;98707.19;4571287;31;19925;-90
2022/07/11 03:19:06;;;;;;;;;;;;;;;18.97;74.43;98714.09;4568083;31;19933;-88
2022/07/11 03:22:06;;;;;;;;;;;;;;;19.16;73.57;98707.66;4563856;31;20430;-89
2022/07/11 03:25:07;;;;;;;;;;;;;;;19.34;72.83;98711.34;4554521;31;20448;-90
2022/07/11 03:33:10;;;;;;;;;;;;;;;19.91;71.17;98722.59;4566871;31;20051;-86
2022/07/11 03:36:35;;;;;;;;;;;;;;;19.97;70.53;98715.03;4559521;31;19928;-85
2022/07/11 03:43:31;;;;;;;;;;;;;;;19.97;70.32;98701.34;4568383;31;19945;-89
2022/07/11 03:46:06;;;;;;;;;;;;;;;19.97;70.27;98706.81;4554387;31;20046;-91
2022/07/11 03:53:02;;;;;;;;;;;;;;;20.08;69.95;98710.94;4606811;31;20006;-90
2022/07/11 03:55:34;;;;;;;;;;;;;;;20.20;69.72;98710.31;4590883;31;19924;-91
2022/07/11 03:58:07;;;;;;;;;;;;;;;20.31;69.35;98708.94;4595561;31;19929;-93
2022/07/11 04:00:43;;;;;;;;;;;;;;;20.41;68.80;98716.03;4591981;31;19925;-91
2022/07/11 04:03:14;;;;;;;;;;;;;;;20.52;68.35;98704.50;4602841;31;19925;-85
2022/07/11 04:05:45;;;;;;;;;;;;;;;20.65;67.91;98707.47;4602615;31;20466;-85
2022/07/11 04:12:45;;;;;;;;;;;;;;;21.20;66.29;98704.97;4668127;30;19926;-86
2022/07/11 04:15:19;;;;;;;;;;;;;;;21.30;65.96;98703.84;4667695;30;19923;-87
2022/07/11 04:17:49;;;;;;;;;;;;;;;21.30;65.52;98709.34;4653589;30;21296;-87
2022/07/11 04:24:27;;;;;;;;;;;;;;;21.28;65.12;98699.81;4666960;30;20351;-85
2022/07/11 04:26:56;;;;;;;;;;;;;;;21.29;64.98;98706.91;4638745;30;19966;-87
2022/07/11 04:33:48;;;;;;;;;;;;;;;21.52;64.31;98704.84;4667808;30;19930;-87
2022/07/11 04:36:20;;;;;;;;;;;;;;;21.56;63.69;98697.56;4666851;30;20341;-88
2022/07/11 04:38:51;;;;;;;;;;;;;;;21.57;63.72;98690.94;4626198;30;20437;-87
2022/07/11 04:41:25;;;;;;;;;;;;;;;21.51;64.02;98695.00;4639555;30;20361;-86
2022/07/11 04:43:58;;;;;;;;;;;;;;;21.58;64.04;98693.38;4652934;30;20321;-87
2022/07/11 04:46:29;;;;;;;;;;;;;;;21.61;64.00;98694.66;4653214;30;19924;-85
2022/07/11 04:48:59;;;;;;;;;;;;;;;21.76;64.01;98688.66;4638897;30;20439;-88
2022/07/11 04:51:36;;;;;;;;;;;;;;;21.84;63.98;98684.28;4639367;30;19927;-88
2022/07/11 04:54:05;;;;;;;;;;;;;;;21.86;63.57;98682.03;4639375;30;20384;-87
2022/07/11 04:56:37;;;;;;;;;;;;;;;21.88;63.59;98677.00;4638503;30;20423;-88
2022/07/11 04:59:07;;;;;;;;;;;;;;;21.87;63.43;98675.38;4652590;30;20444;-87
2022/07/11 05:01:36;;;;;;;;;;;;;;;21.90;63.37;98661.00;4638506;30;20310;-88
2022/07/11 05:04:08;;;;;;;;;;;;;;;22.03;62.92;98676.47;4651609;30;19959;-87
2022/07/11 05:06:40;;;;;;;;;;;;;;;22.20;62.92;98672.06;4651910;30;20392;-88
2022/07/11 05:13:37;;;;;;;;;;;;;;;22.53;61.65;98664.00;4667127;30;19994;-86
2022/07/11 05:16:08;;;;;;;;;;;;;;;22.60;61.68;98660.72;4638363;30;20435;-86
2022/07/11 05:18:39;;;;;;;;;;;;;;;22.60;61.47;98655.22;4662941;30;19994;-86
2022/07/11 05:21:10;;;;;;;;;;;;;;;22.55;61.67;98653.47;4648868;30;20433;-87
2022/07/11 05:23:40;;;;;;;;;;;;;;;22.41;61.91;98667.47;4662904;30;19928;-88
2022/07/11 05:26:14;;;;;;;;;;;;;;;22.44;62.03;98658.56;4649533;30;20396;-87
2022/07/11 05:33:35;;;;;;;;;;;;;;;22.75;60.13;98653.84;4649610;30;20388;-87
2022/07/11 05:36:08;;;;;;;;;;;;;;;22.87;59.96;98663.00;4620955;30;19931;-89
2022/07/11 05:38:40;;;;;;;;;;;;;;;22.94;59.07;98657.75;4635149;30;20408;-86
2022/07/11 05:41:09;;;;;;;;;;;;;;;23.09;59.22;98658.31;4634660;30;20470;-88
2022/07/11 05:43:40;;;;;;;;;;;;;;;23.27;59.05;98651.53;4662289;30;19951;-88
2022/07/11 05:46:10;;;;;;;;;;;;;;;23.44;59.07;98650.56;4634490;30;20369;-87
2022/07/11 05:53:09;;;;;;;;;;;;;;;23.56;58.63;98658.06;4649660;30;19962;-88
2022/07/11 05:55:40;;;;;;;;;;;;;;;23.58;58.16;98656.59;4648821;30;20369;-88
2022/07/11 05:58:11;;;;;;;;;;;;;;;23.77;57.90;98658.03;4649703;30;20432;-88
2022/07/11 06:00:42;;;;;;;;;;;;;;;23.94;57.67;98651.53;4648013;30;19967;-86
2022/07/11 06:03:12;;;;;;;;;;;;;;;24.01;56.93;98643.53;4621283;30;20399;-88
2022/07/11 06:05:43;;;;;;;;;;;;;;;24.12;56.05;98643.88;4661790;30;20373;-88
2022/07/11 06:12:41;;;;;;;;;;;;;;;24.38;56.67;98640.78;4648971;30;19930;-87
2022/07/11 06:15:17;;;;;;;;;;;;;;;24.43;56.46;98626.75;4621649;30;20444;-86
2022/07/11 06:17:52;;;;;;;;;;;;;;;24.53;56.15;98634.59;4649849;30;19924;-88
2022/07/11 06:20:42;;;;;;;;;;;;;;;24.53;56.46;98626.31;4638817;30;19928;-88
2022/07/11 06:23:27;;;;;;;;;;;;;;;24.55;55.45;98637.81;4665964;30;20455;-87
2022/07/11 06:26:00;;;;;;;;;;;;;;;24.74;55.38;98628.94;4637470;30;20272;-87
2022/07/11 06:32:56;;;;;;;;;;;;;;;25.18;54.45;98625.53;4666134;30;19942;-86
2022/07/11 06:35:29;;;;;;;;;;;;;;;25.44;54.17;98628.63;4637944;30;20348;-88
2022/07/11 06:38:01;;;;;;;;;;;;;;;25.59;52.85;98617.97;4664671;30;19930;-88
2022/07/11 06:40:33;;;;;;;;;;;;;;;25.71;52.63;98607.66;4664479;30;20380;-87
2022/07/11 06:43:09;;;;;;;;;;;;;;;25.78;52.56;98609.81;4650332;30;19930;-85
2022/07/11 06:45:41;;;;;;;;;;;;;;;25.97;52.59;98609.13;4624077;30;20440;-86
2022/07/11 06:52:36;;;;;;;;;;;;;;;26.34;51.08;98615.16;4665978;30;20315;-89
2022/07/11 06:55:08;;;;;;;;;;;;;;;26.36;50.95;98609.28;4637813;30;20376;-91
2022/07/11 06:57:41;;;;;;;;;;;;;;;26.39;50.74;98614.09;4651931;30;20385;-93
2022/07/11 07:00:34;;;;;;;;;;;;;;;26.30;51.45;98617.03;4628799;30;19923;-91
2022/07/11 07:03:08;;;;;;;;;;;;;;;26.10;51.95;98609.81;4627729;30;19930;-91
2022/07/11 07:05:52;;;;;;;;;;;;;;;26.16;51.98;98616.72;4656264;30;19923;-91
2022/07/11 07:08:27;;;;;;;;;;;;;;;26.18;51.79;98600.53;4639843;30;19932;-95
2022/07/11 07:11:02;;;;;;;;;;;;;;;26.30;51.41;98608.75;4642031;30;19986;-88
2022/07/11 07:13:37;;;;;;;;;;;;;;;26.54;51.35;98599.47;4654066;30;20404;-87
2022/07/11 07:16:10;;;;;;;;;;;;;;;26.72;51.11;98599.84;4626015;30;20373;-88
2022/07/11 07:18:43;;;;;;;;;;;;;;;26.84;51.08;98598.09;4655149;30;20373;-89
2022/07/11 07:21:14;;;;;;;;;;;;;;;27.04;49.69;98594.19;4671068;30;20357;-87
2022/07/11 07:23:44;;;;;;;;;;;;;;;27.19;49.78;98606.38;4658487;30;19924;-90
2022/07/11 07:26:15;;;;;;;;;;;;;;;27.27;49.32;98599.03;4659244;30;19923;-89
2022/07/11 07:33:04;;;;;;;;;;;;;;;27.66;48.20;98606.13;4673392;30;20033;-87
2022/07/11 07:35:34;;;;;;;;;;;;;;;27.83;47.65;98607.66;4657384;30;20440;-87
2022/07/11 07:38:06;;;;;;;;;;;;;;;27.85;47.45;98607.25;4641511;30;20440;-88
2022/07/11 07:40:38;;;;;;;;;;;;;;;27.94;47.34;98601.47;4627726;30;20369;-89
2022/07/11 07:43:12;;;;;;;;;;;;;;;27.98;46.79;98599.56;4628156;30;19987;-90
2022/07/11 07:45:45;;;;;;;;;;;;;;;28.00;46.31;98586.13;4627413;30;20436;-91
2022/07/11 07:48:21;;;;;;;;;;;;;;;28.04;45.97;98603.63;4642881;30;19998;-89
2022/07/11 07:51:03;;;;;;;;;;;;;;;28.15;45.43;98592.72;4630962;30;20030;-89
2022/07/11 07:53:41;;;;;;;;;;;;;;;28.41;44.83;98603.84;4628826;30;20226;-89
2022/07/11 07:56:22;;;;;;;;;;;;;;;28.73;43.87;98600.75;4642426;30;19951;-87
2022/07/11 08:03:35;;;;;;;;;;;;;;;29.11;43.11;98596.91;4672757;30;20080;-88
2022/07/11 08:06:35;;;;;;;;;;;;;;;29.19;42.81;98596.97;4645424;30;19928;-92
2022/07/11 08:14:01;;;;;;;;;;;;;;;29.55;42.67;98584.31;4634877;31;20367;-90
2022/07/11 08:16:37;;;;;;;;;;;;;;;29.45;42.53;98584.97;4633008;31;20464;-88
2022/07/11 08:19:11;;;;;;;;;;;;;;;29.39;42.52;98581.72;4605603;31;20374;-91
2022/07/11 08:21:43;;;;;;;;;;;;;;;29.60;42.51;98589.50;4620001;31;19924;-92
2022/07/11 08:24:17;;;;;;;;;;;;;;;29.67;41.68;98577.69;4633586;31;20479;-91
2022/07/11 08:26:49;;;;;;;;;;;;;;;29.42;42.51;98578.19;4620366;31;20452;-90
2022/07/11 08:29:22;;;;;;;;;;;;;;;29.84;41.87;98565.91;4605788;31;20011;-88
2022/07/11 08:31:56;;;;;;;;;;;;;;;30.34;40.99;98571.91;4620576;31;20330;-89
2022/07/11 08:34:25;;;;;;;;;;;;;;;30.42;40.27;98564.41;4623428;31;20460;-88
2022/07/11 08:36:57;;;;;;;;;;;;;;;30.30;40.31;98561.94;4618915;31;20267;-84
2022/07/11 08:39:31;;;;;;;;;;;;;;;30.69;39.81;98567.75;4618641;31;19924;-86
2022/07/11 08:42:04;;;;;;;;;;;;;;;31.12;39.19;98564.34;4618397;31;20376;-85
2022/07/11 08:44:35;;;;;;;;;;;;;;;31.32;38.67;98565.59;4631814;31;20441;-84
2022/07/11 08:47:04;;;;;;;;;;;;;;;31.50;37.80;98562.91;4631946;31;20433;-87
2022/07/11 08:49:34;;;;;;;;;;;;;;;31.83;37.70;98558.97;4622508;30;20027;-86
2022/07/11 08:52:04;;;;;;;;;;;;;;;32.03;36.45;98556.59;4624819;30;20393;-87
2022/07/11 08:54:35;;;;;;;;;;;;;;;32.13;36.32;98563.34;4667628;30;20369;-85
2022/07/11 08:57:09;;;;;;;;;;;;;;;31.84;36.68;98557.75;4654543;30;19924;-87
2022/07/11 09:04:06;;;;;;;;;;;;;;;32.59;35.55;98551.34;4666934;30;20412;-82
2022/07/11 09:06:37;;;;;;;;;;;;;;;32.85;35.40;98552.06;4638030;30;20284;-83
2022/07/11 09:13:34;;;;;;;;;;;;;;;33.16;34.75;98553.94;4666827;30;20132;-86
2022/07/11 09:16:06;;;;;;;;;;;;;;;33.53;34.56;98544.13;4666668;30;20336;-86
2022/07/11 09:18:39;;;;;;;;;;;;;;;33.19;33.63;98541.91;4662822;30;20377;-87
2022/07/11 09:26:52;;;;;;;;;;;;;;;33.96;33.35;98537.44;4637726;30;20369;-87
2022/07/11 09:33:40;;;;;;;;;;;;;;;34.06;32.68;98542.16;4649535;30;20047;-84
2022/07/11 09:36:10;;;;;;;;;;;;;;;34.05;32.55;98534.94;4635100;30;20428;-88
2022/07/11 09:38:58;;;;;;;;;;;;;;;34.36;32.69;98538.69;4648458;30;19931;-87
2022/07/11 09:41:32;;;;;;;;;;;;;;;34.60;32.11;98520.03;4636269;30;20365;-87
2022/07/11 09:44:21;;;;;;;;;;;;;;;34.71;31.08;98522.69;4621666;30;20377;-88
2022/07/11 09:46:55;;;;;;;;;;;;;;;34.89;30.68;98520.50;4622508;30;19936;-87
2022/07/11 09:49:33;;;;;;;;;;;;;;;34.71;30.40;98512.28;4635533;30;20428;-85
2022/07/11 09:52:12;;;;;;;;;;;;;;;34.95;30.73;98513.19;4648947;30;19988;-86
2022/07/11 09:55:12;;;;;;;;;;;;;;;34.95;29.82;98504.00;4622744;30;20428;-88
2022/07/11 09:58:04;;;;;;;;;;;;;;;35.15;29.26;98502.13;4614866;31;20375;-88
2022/07/11 10:00:39;;;;;;;;;;;;;;;35.43;29.24;98510.56;4601339;31;20478;-87
2022/07/11 10:03:11;;;;;;;;;;;;;;;35.89;29.30;98504.19;4601403;31;20417;-84
2022/07/11 10:06:06;;;;;;;;;;;;;;;36.23;28.64;98491.97;4590055;31;20358;-86
2022/07/11 10:08:35;;;;;;;;;;;;;;;36.22;28.54;98504.44;4614312;31;20442;-86
2022/07/11 10:11:05;;;;;;;;;;;;;;;36.57;28.29;98502.22;4601423;31;20374;-86
2022/07/11 10:13:38;;;;;;;;;;;;;;;36.74;27.56;98505.84;4573781;31;20493;-86
2022/07/11 10:16:31;;;;;;;;;;;;;;;36.69;27.41;98490.31;4600863;31;20393;-85
2022/07/11 10:19:14;;;;;;;;;;;;;;;36.83;27.57;98492.03;4574307;31;20474;-86
2022/07/11 10:21:45;;;;;;;;;;;;;;;37.13;26.86;98495.81;4600943;31;19925;-88
2022/07/11 10:24:27;;;;;;;;;;;;;;;36.91;26.82;98487.03;4614155;31;20378;-86
2022/07/11 10:27:11;;;;;;;;;;;;;;;36.85;26.90;98486.75;4586840;31;20497;-86
2022/07/11 10:34:10;;;;;;;;;;;;;;;37.22;26.52;98467.88;4631152;30;19920;-86
2022/07/11 10:36:44;;;;;;;;;;;;;;;37.55;26.61;98485.59;4648867;30;20369;-87
2022/07/11 10:43:41;;;;;;;;;;;;;;;38.26;25.38;98497.09;4649480;30;19979;-88
2022/07/11 10:46:21;;;;;;;;;;;;;;;38.19;24.74;98485.22;4622164;30;20380;-86
2022/07/11 10:53:23;;;;;;;;;;;;;;;38.02;25.01;98485.25;4649271;30;20425;-87
2022/07/11 10:56:06;;;;;;;;;;;;;;;37.55;24.85;98462.28;4633752;30;20392;-86
2022/07/11 11:03:00;;;;;;;;;;;;;;;37.31;24.99;98490.56;4650143;30;19920;-86
2022/07/11 11:05:47;;;;;;;;;;;;;;;37.76;24.73;98481.47;4623959;30;20421;-83
2022/07/11 11:11:08;;;;;;;;;;;;;;;37.77;24.44;98491.50;4664743;30;19927;-87
2022/07/11 11:13:36;;;;;;;;;;;;;;;37.85;24.19;98498.50;4651628;30;20397;-85
2022/07/11 11:16:22;;;;;;;;;;;;;;;38.24;24.19;98473.41;4651771;30;20345;-88
2022/07/11 11:18:51;;;;;;;;;;;;;;;38.57;23.56;98474.09;4664824;30;20381;-85
2022/07/11 11:21:20;;;;;;;;;;;;;;;38.15;23.85;98474.03;4651940;30;19927;-86
2022/07/11 11:24:06;;;;;;;;;;;;;;;36.73;24.70;98479.00;4650897;30;19924;-87
2022/07/11 11:27:01;;;;;;;;;;;;;;;36.59;25.09;98460.38;4665414;30;19988;-85
2022/07/11 11:33:43;;;;;;;;;;;;;;;36.73;25.52;98473.38;4651318;30;20361;-86
2022/07/11 11:36:15;;;;;;;;;;;;;;;37.74;24.77;98481.91;4650492;30;20388;-84
2022/07/11 11:38:44;;;;;;;;;;;;;;;38.04;24.38;98479.19;4651243;30;20373;-89
2022/07/11 11:41:24;;;;;;;;;;;;;;;38.39;23.58;98468.94;4651674;30;19924;-86
2022/07/11 11:43:53;;;;;;;;;;;;;;;38.73;23.32;98465.56;4664385;30;20418;-84
2022/07/11 11:46:27;;;;;;;;;;;;;;;39.10;23.01;98448.38;4651327;30;20380;-85
2022/07/11 11:49:00;;;;;;;;;;;;;;;38.96;22.54;98480.63;4651591;30;20591;-85
2022/07/11 11:51:31;;;;;;;;;;;;;;;38.69;23.04;98453.59;4637390;30;20277;-85
2022/07/11 11:54:02;;;;;;;;;;;;;;;38.57;23.28;98476.91;4637281;30;20409;-84
2022/07/11 11:56:34;;;;;;;;;;;;;;;37.27;24.29;98464.53;4651099;30;20288;-85
2022/07/11 11:59:09;;;;;;;;;;;;;;;37.36;24.48;98472.38;4651684;30;19928;-84
2022/07/11 12:01:45;;;;;;;;;;;;;;;38.21;22.80;98480.72;4651515;30;20346;-85
2022/07/11 12:04:17;;;;;;;;;;;;;;;38.72;22.42;98466.81;4649838;30;20364;-86
2022/07/11 12:06:46;;;;;;;;;;;;;;;38.56;22.51;98480.97;4650932;30;19924;-86
2022/07/11 12:09:18;;;;;;;;;;;;;;;38.89;21.88;98473.16;4651197;30;19923;-86
2022/07/11 12:12:43;;;;;;;;;;;;;;;39.61;21.83;98460.41;4664598;30;20353;-85
2022/07/11 12:14:36;;;;;;;;;;;;;;;40.06;21.07;98506.56;4649674;30;20385;-86
2022/07/11 12:17:04;;;;;;;;;;;;;;;39.70;21.31;98485.13;4650517;30;20366;-84
2022/07/11 12:19:36;;;;;;;;;;;;;;;39.49;21.90;98469.69;4644657;30;20288;-84
2022/07/11 12:22:04;;;;;;;;;;;;;;;39.57;21.07;98464.59;4649308;30;20301;-84
2022/07/11 12:24:35;;;;;;;;;;;;;;;39.31;21.84;98469.47;4663491;30;20366;-82
2022/07/11 12:27:06;;;;;;;;;;;;;;;39.54;21.74;98499.38;4663353;30;20258;-85
2022/07/11 12:33:53;;;;;;;;;;;;;;;38.09;23.35;98493.50;4650498;30;20026;-86
2022/07/11 12:36:31;;;;;;;;;;;;;;;37.27;23.81;98498.28;4663196;30;20384;-87
2022/07/11 12:46:30;;;;;;;;;;;;;;;35.80;25.58;98490.72;4663433;30;20377;-86
2022/07/11 12:53:16;;;;;;;;;;;;;;;37.00;24.47;98493.66;4650500;30;20296;-87
2022/07/11 12:55:44;;;;;;;;;;;;;;;37.06;24.71;98497.56;4650288;30;20372;-88
2022/07/11 12:58:13;;;;;;;;;;;;;;;36.97;25.04;98497.34;4662620;30;20427;-85
2022/07/11 13:00:44;;;;;;;;;;;;;;;37.21;24.69;98505.69;4664023;30;20356;-87
2022/07/11 13:03:13;;;;;;;;;;;;;;;36.52;25.13;98506.28;4663704;30;20442;-87
2022/07/11 13:05:58;;;;;;;;;;;;;;;36.23;25.57;98512.47;4663621;30;20413;-86
2022/07/11 13:08:44;;;;;;;;;;;;;;;36.32;25.17;98502.66;4650158;30;19932;-86
2022/07/11 13:11:18;;;;;;;;;;;;;;;35.59;25.79;98505.91;4662636;30;20384;-88
2022/07/11 13:13:48;;;;;;;;;;;;;;;35.26;26.36;98504.78;4652175;30;20361;-86
2022/07/11 13:16:17;;;;;;;;;;;;;;;35.77;25.93;98510.44;4651643;30;20360;-86
2022/07/11 13:18:46;;;;;;;;;;;;;;;35.66;26.48;98505.00;4656633;30;20365;-88
2022/07/11 13:21:15;;;;;;;;;;;;;;;35.43;27.05;98499.34;4667497;30;20386;-87
2022/07/11 13:23:44;;;;;;;;;;;;;;;34.92;27.13;98497.22;4668115;30;20377;-87
2022/07/11 13:26:14;;;;;;;;;;;;;;;34.42;27.43;98511.81;4669748;30;20406;-88
2022/07/11 13:33:14;;;;;;;;;;;;;;;33.97;27.86;98520.22;4666672;30;19927;-88
2022/07/11 13:35:42;;;;;;;;;;;;;;;33.72;28.57;98498.03;4637679;30;20388;-87
2022/07/11 13:38:14;;;;;;;;;;;;;;;33.70;28.50;98516.44;4652727;30;20361;-87
2022/07/11 13:40:43;;;;;;;;;;;;;;;34.43;27.89;98512.59;4651404;30;20365;-85
2022/07/11 13:43:13;;;;;;;;;;;;;;;34.68;27.63;98513.13;4665880;30;20420;-86
2022/07/11 13:45:47;;;;;;;;;;;;;;;34.04;28.49;98506.16;4666226;30;19923;-84
2022/07/11 13:48:16;;;;;;;;;;;;;;;33.38;29.67;98509.88;4624207;30;20401;-89
2022/07/11 13:50:51;;;;;;;;;;;;;;;33.27;29.95;98519.53;4666484;30;20399;-88
2022/07/11 13:53:20;;;;;;;;;;;;;;;33.06;29.91;98506.47;4623246;30;20416;-89
2022/07/11 13:55:48;;;;;;;;;;;;;;;33.41;29.61;98499.88;4651258;30;20321;-89
2022/07/11 13:58:26;;;;;;;;;;;;;;;33.63;29.31;98506.91;4651347;30;20344;-89
2022/07/11 14:00:58;;;;;;;;;;;;;;;34.32;28.45;98501.50;4653933;30;19931;-86
2022/07/11 14:03:27;;;;;;;;;;;;;;;34.59;27.87;98510.03;4665926;30;19923;-87
2022/07/11 14:06:04;;;;;;;;;;;;;;;34.54;28.13;98513.28;4667037;30;19924;-90
2022/07/11 14:13:07;;;;;;;;;;;;;;;37.43;25.16;98506.78;4665848;30;19920;-89
2022/07/11 14:15:35;;;;;;;;;;;;;;;38.21;24.31;98503.25;4664633;30;19924;-88
2022/07/11 14:18:03;;;;;;;;;;;;;;;38.73;23.65;98496.56;4637108;30;19930;-88
2022/07/11 14:24:58;;;;;;;;;;;;;;;40.21;21.60;98487.84;4665248;30;20383;-87
2022/07/11 14:27:26;;;;;;;;;;;;;;;39.62;22.27;98500.72;4652161;30;20365;-89
2022/07/11 14:29:55;;;;;;;;;;;;;;;39.99;21.97;98487.81;4664410;30;20334;-86
2022/07/11 14:32:25;;;;;;;;;;;;;;;40.11;21.52;98494.66;4665052;30;20357;-89
2022/07/11 14:34:57;;;;;;;;;;;;;;;40.44;21.70;98489.47;4637187;30;20325;-86
2022/07/11 14:37:26;;;;;;;;;;;;;;;39.98;21.41;98494.69;4650348;30;20365;-89
2022/07/11 14:44:20;;;;;;;;;;;;;;;40.46;21.10;98480.50;4669475;30;19927;-88
2022/07/11 14:46:49;;;;;;;;;;;;;;;40.78;20.32;98493.47;4672606;30;20424;-88
2022/07/11 14:49:20;;;;;;;;;;;;;;;41.11;20.32;98481.72;4653985;30;20381;-88
2022/07/11 14:51:48;;;;;;;;;;;;;;;41.36;19.99;98483.56;4669043;30;20344;-90
2022/07/11 14:54:24;;;;;;;;;;;;;;;41.09;20.42;98492.72;4667421;30;20300;-90
2022/07/11 14:56:55;;;;;;;;;;;;;;;40.08;20.89;98481.44;4667270;30;20494;-88
2022/07/11 14:59:24;;;;;;;;;;;;;;;38.62;22.43;98495.31;4667699;30;19924;-89
2022/07/11 15:01:52;;;;;;;;;;;;;;;37.67;21.99;98484.09;4666550;30;20290;-86
2022/07/11 15:04:21;;;;;;;;;;;;;;;35.79;23.25;98488.34;4665936;30;20365;-89
2022/07/11 15:13:59;;;;;;;;;;;;;;;37.13;22.63;98498.63;4665110;30;20361;-88
2022/07/11 15:16:33;;;;;;;;;;;;;;;37.44;21.85;98491.47;4665503;30;19924;-87
2022/07/11 15:19:05;;;;;;;;;;;;;;;37.51;21.95;98491.31;4661751;30;20285;-90
2022/07/11 15:21:36;;;;;;;;;;;;;;;37.51;22.02;98485.69;4649261;30;20417;-87
2022/07/11 15:24:05;;;;;;;;;;;;;;;37.62;21.68;98468.53;4647967;30;20350;-88
2022/07/11 15:26:36;;;;;;;;;;;;;;;37.40;22.05;98496.41;4649246;30;20559;-88
2022/07/11 15:33:51;;;;;;;;;;;;;;;37.01;22.50;98486.78;4656057;30;20334;-87
2022/07/11 15:36:20;;;;;;;;;;;;;;;36.97;22.57;98491.72;4660115;30;19924;-89
2022/07/11 15:38:57;;;;;;;;;;;;;;;37.32;22.32;98489.34;4627734;30;20326;-90
2022/07/11 15:41:31;;;;;;;;;;;;;;;37.46;22.09;98500.25;4626369;30;20365;-90
2022/07/11 15:44:05;;;;;;;;;;;;;;;37.50;22.20;98489.72;4622722;30;20246;-88
2022/07/11 15:46:37;;;;;;;;;;;;;;;37.48;22.51;98495.00;4664960;30;20245;-90
2022/07/11 15:53:31;;;;;;;;;;;;;;;36.76;23.45;98486.53;4653525;30;20024;-91
2022/07/11 15:56:03;;;;;;;;;;;;;;;36.52;23.97;98489.41;4637923;30;20288;-89
2022/07/11 15:58:37;;;;;;;;;;;;;;;36.64;24.15;98491.63;4640077;30;20292;-92
2022/07/11 16:01:17;;;;;;;;;;;;;;;36.76;24.13;98489.34;4651931;30;20285;-92
2022/07/11 16:03:52;;;;;;;;;;;;;;;36.67;24.39;98493.56;4638319;30;20296;-88
2022/07/11 16:06:24;;;;;;;;;;;;;;;36.57;24.72;98490.97;4664272;30;20288;-91
2022/07/11 16:13:23;;;;;;;;;;;;;;;33.19;28.86;98491.59;4650904;30;20006;-85
2022/07/11 16:15:57;;;;;;;;;;;;;;;32.46;30.03;98497.09;4650753;30;20361;-84
2022/07/11 16:18:28;;;;;;;;;;;;;;;32.04;30.74;98487.63;4649545;30;20432;-86
2022/07/11 16:20:57;;;;;;;;;;;;;;;31.62;31.47;98489.22;4651397;30;20366;-87
2022/07/11 16:23:25;;;;;;;;;;;;;;;31.25;31.82;98488.34;4636894;30;20297;-87
2022/07/11 16:26:00;;;;;;;;;;;;;;;31.05;32.32;98495.47;4655273;30;20346;-93
2022/07/11 16:28:31;;;;;;;;;;;;;;;30.80;32.97;98481.44;4641383;30;20380;-86
2022/07/11 16:31:02;;;;;;;;;;;;;;;30.58;33.48;98484.13;4650519;30;20318;-89
2022/07/11 16:33:35;;;;;;;;;;;;;;;30.33;33.65;98488.78;4664627;30;20340;-86
2022/07/11 16:36:10;;;;;;;;;;;;;;;30.16;33.77;98485.50;4651872;30;20445;-89
2022/07/11 16:38:39;;;;;;;;;;;;;;;30.00;34.82;98477.41;4636580;30;19924;-87
2022/07/11 16:44:04;;;;;;;;;;;;;;;29.80;34.96;98470.53;4649664;30;20039;-88
2022/07/11 16:46:32;;;;;;;;;;;;;;;29.68;34.92;98471.66;4637021;30;20345;-86
2022/07/11 16:53:19;;;;;;;;;;;;;;;29.34;35.91;98455.03;4650620;30;19927;-87
2022/07/11 16:55:48;;;;;;;;;;;;;;;29.24;35.88;98452.97;4621350;30;20293;-85
2022/07/11 16:58:20;;;;;;;;;;;;;;;29.11;36.27;98457.19;4649949;30;20405;-85
2022/07/11 17:00:55;;;;;;;;;;;;;;;28.98;36.52;98450.28;4650480;30;19931;-86
2022/07/11 17:03:26;;;;;;;;;;;;;;;28.87;36.74;98439.09;4650451;30;20468;-86
2022/07/11 17:05:54;;;;;;;;;;;;;;;28.75;36.91;98448.47;4650562;30;20349;-84
2022/07/11 17:08:43;;;;;;;;;;;;;;;28.67;37.03;98449.56;4635514;30;20258;-85
2022/07/11 17:11:12;;;;;;;;;;;;;;;28.55;37.39;98453.38;4623038;30;19990;-83
2022/07/11 17:13:43;;;;;;;;;;;;;;;28.51;37.09;98447.81;4663058;30;20365;-88
2022/07/11 17:16:12;;;;;;;;;;;;;;;28.42;37.61;98463.91;4622328;30;20444;-86
2022/07/11 17:18:47;;;;;;;;;;;;;;;28.34;37.30;98459.44;4621138;30;19928;-85
2022/07/11 17:21:20;;;;;;;;;;;;;;;28.26;37.59;98454.97;4622010;30;20255;-86
2022/07/11 17:23:48;;;;;;;;;;;;;;;28.20;37.46;98451.72;4621254;30;20381;-84
2022/07/11 17:26:22;;;;;;;;;;;;;;;28.16;37.22;98461.19;4648770;30;20344;-85
2022/07/11 17:28:53;;;;;;;;;;;;;;;28.08;37.52;98458.31;4649738;30;20345;-85
2022/07/11 17:31:24;;;;;;;;;;;;;;;28.03;37.63;98452.25;4621267;30;19924;-83
2022/07/11 17:33:53;;;;;;;;;;;;;;;27.95;37.52;98451.34;4649333;30;20432;-85
2022/07/11 17:36:25;;;;;;;;;;;;;;;27.91;37.61;98467.16;4650019;30;20361;-85